Date,TemperatureHighF,TemperatureAvgF,TemperatureLowF,DewpointHighF,DewpointAvgF,DewpointLowF,HumidityHigh,HumidityAvg,HumidityLow,PressureMaxIn,PressureMinIn,WindSpeedMaxMPH,WindSpeedAvgMPH,GustSpeedMaxMPH,PrecipitationSumIn
2013-1-12,21,20,20,19,18,18,92,91,91,30.30,30.29,0,0,0,0.00
2013-1-13,40,26,17,32,22,14,93,86,65,30.34,30.28,4,0,4,0.01
2013-1-14,38,32,27,31,28,25,93,88,72,30.40,30.31,2,0,2,0.00
2013-1-15,51,33,25,38,29,22,94,86,57,30.53,30.40,5,0,6,0.00
2013-1-16,48,29,20,39,26,18,94,87,62,30.51,30.35,3,0,3,0.00
2013-1-17,49,30,22,40,27,20,94,89,68,30.37,30.14,6,0,6,0.00
2013-1-18,38,30,22,35,28,20,94,92,87,30.19,30.11,7,0,7,0.01
2013-1-19,32,30,27,30,28,26,95,94,92,30.23,30.18,3,0,3,0.00
2013-1-20,34,29,26,32,28,24,94,93,92,30.24,30.11,3,1,3,0.00
2013-1-21,34,28,22,31,27,20,95,94,91,30.13,29.98,5,1,5,0.00
2013-1-22,39,29,22,37,28,20,95,93,88,29.99,29.75,3,0,3,0.00
2013-1-23,45,38,33,39,35,28,94,88,67,29.99,29.69,5,1,5,0.17
2013-1-24,46,37,28,44,35,26,95,93,83,30.07,29.90,4,0,4,0.15
2013-1-25,53,42,36,50,40,35,95,93,86,29.91,29.78,3,0,3,0.32
2013-1-26,51,40,33,42,37,31,96,88,67,29.88,29.73,10,2,10,0.06
2013-1-27,41,39,37,40,37,36,94,94,91,29.91,29.84,7,1,7,0.48
2013-1-28,41,39,35,40,38,34,96,95,94,29.95,29.85,6,1,6,0.72
2013-1-29,46,43,40,45,42,39,96,95,95,30.21,29.95,8,1,8,0.67
2013-1-30,48,46,43,47,44,42,96,95,95,30.24,30.18,4,1,5,0.50
2013-1-31,49,46,44,48,45,43,96,95,94,30.24,30.15,4,0,4,0.27
2013-2-1,56,43,32,50,41,31,96,92,76,30.24,30.17,6,1,6,0.02
2013-2-2,42,38,33,40,36,31,95,94,93,30.23,30.09,4,1,4,0.00
2013-2-3,48,40,31,46,39,30,96,94,91,30.15,30.05,2,0,2,0.09
2013-2-4,53,45,41,48,42,40,96,91,75,30.06,29.72,5,1,5,0.00
2013-2-5,52,44,41,48,42,39,95,93,77,29.81,29.68,10,1,10,0.37
2013-2-6,53,44,40,47,41,38,95,90,66,29.91,29.64,7,1,7,0.14
2013-2-7,53,40,28,44,35,26,95,85,52,30.03,29.64,13,1,13,0.09
2013-2-8,45,35,27,40,32,25,94,89,72,30.14,30.03,6,0,6,0.00
2013-2-9,46,40,36,41,37,34,94,90,77,30.17,30.09,4,0,4,0.01
2013-2-10,48,40,34,42,36,32,95,87,66,30.21,30.15,8,1,8,0.01
2013-2-11,49,42,35,41,38,34,94,87,68,30.20,30.16,5,0,5,0.00
2013-2-12,49,46,41,47,43,40,95,92,87,30.24,30.16,13,2,13,0.07
2013-2-13,48,47,46,44,44,43,93,88,85,30.19,30.15,10,3,10,0.01
2013-2-14,51,46,39,46,43,37,95,90,83,30.39,30.36,4,0,4,0.04
2013-2-15,61,44,33,51,40,31,95,87,64,30.31,30.02,6,1,6,0.00
2013-2-16,54,43,31,45,38,29,95,83,64,30.05,29.96,16,3,16,0.00
2013-2-17,49,42,38,38,35,32,91,78,56,30.09,29.96,8,2,8,0.01
2013-2-18,49,39,32,40,35,29,93,85,63,29.95,29.60,6,1,6,0.00
2013-2-19,51,35,30,39,32,28,95,89,57,29.65,29.57,6,0,6,0.00
2013-2-20,45,33,27,39,30,25,94,90,76,29.89,29.83,6,0,6,0.05
2013-2-21,42,39,33,40,37,31,95,91,87,29.93,29.85,11,2,11,0.15
2013-2-22,44,41,38,42,38,34,95,90,84,29.91,29.57,14,3,14,0.68
2013-2-23,48,41,38,42,37,34,91,84,68,30.22,29.76,9,2,9,0.04
2013-2-24,48,42,38,40,37,35,93,84,67,30.23,29.80,9,1,9,0.01
2013-2-25,53,43,40,40,36,30,94,78,43,30.15,29.75,17,4,17,0.13
2013-2-26,50,42,36,38,34,30,90,75,46,30.19,30.04,8,1,8,0.00
2013-2-27,52,43,35,44,40,33,95,89,69,30.15,30.04,6,1,6,0.27
2013-2-28,49,45,41,47,43,39,95,94,94,30.18,30.02,4,0,4,0.53
2013-3-1,61,53,46,54,49,44,96,88,69,30.21,30.13,12,2,12,0.14
2013-3-2,55,45,42,49,43,40,95,92,78,30.13,29.99,6,1,6,0.00
2013-3-4,59,44,24,39,28,22,94,56,32,30.09,29.75,10,2,10,0.00
2013-3-5,55,46,40,38,32,24,87,58,37,29.76,29.55,10,2,10,0.00
2013-3-6,48,40,36,41,38,33,94,90,76,29.75,29.40,7,1,7,0.72
2013-3-7,55,43,31,47,39,29,94,87,59,29.93,29.75,7,1,7,0.44
2013-3-8,59,39,28,44,34,26,95,82,51,30.08,29.91,9,1,9,0.01
2013-3-9,61,39,26,42,32,23,95,77,43,30.34,30.08,8,1,8,0.00
2013-3-10,46,38,28,43,36,25,93,90,85,30.34,30.26,2,0,2,0.08
2013-3-11,54,44,36,46,41,35,94,88,70,30.28,30.01,4,0,4,0.08
2013-3-12,54,50,45,50,47,43,95,90,75,30.02,29.93,10,2,10,0.08
2013-3-13,54,51,48,52,49,46,95,93,86,30.05,29.93,5,1,5,0.20
2013-3-14,59,50,46,55,48,45,96,93,78,30.01,29.86,9,1,9,0.08
2013-3-15,62,52,46,54,48,45,96,87,66,30.06,29.99,7,1,7,0.02
2013-3-16,52,46,39,46,42,35,91,85,74,29.99,29.75,17,3,17,0.35
2013-3-17,51,42,38,38,35,31,87,76,55,30.05,29.83,18,3,18,0.01
2013-3-18,56,43,30,41,34,27,89,72,40,30.08,29.99,11,3,11,0.00
2013-3-19,57,40,29,40,33,26,94,77,37,30.07,29.44,11,2,11,0.25
2013-3-20,53,44,38,47,40,33,94,84,71,29.87,29.26,17,4,17,0.61
2013-3-21,52,39,32,38,33,30,93,81,56,30.06,29.87,9,2,9,0.27
2013-3-22,49,37,27,38,31,24,94,82,52,30.21,30.06,8,1,8,0.31
2013-3-23,55,38,27,36,28,25,92,72,41,30.24,30.14,5,1,5,0.00
2013-3-24,58,39,26,37,29,23,93,72,34,30.14,29.96,6,1,6,0.00
2013-3-25,68,48,28,38,32,25,91,60,30,29.96,29.76,6,1,6,0.00
2013-3-26,66,50,40,42,38,35,85,66,37,29.86,29.79,6,1,6,0.00
2013-3-27,59,48,40,48,42,37,93,80,58,29.83,29.77,3,1,3,0.03
2013-3-28,65,49,38,51,43,35,94,83,56,29.99,29.83,5,1,5,0.05
2013-3-29,70,50,36,51,42,34,94,76,41,30.08,29.99,7,1,7,0.02
2013-3-30,74,51,32,48,40,30,94,71,37,30.10,29.91,9,2,9,0.00
2013-3-31,76,53,34,49,42,32,94,71,37,29.91,29.75,4,1,4,0.00
2013-4-1,68,51,37,52,44,34,92,79,55,30.00,29.82,6,1,6,0.00
2013-4-2,55,50,47,49,46,44,93,85,78,30.05,29.99,6,1,6,0.00
2013-4-3,68,53,42,49,44,40,95,76,47,30.03,29.78,5,1,5,0.00
2013-4-4,57,51,45,54,49,42,94,91,87,29.78,29.49,3,1,3,0.24
2013-4-5,56,51,47,52,49,45,95,93,87,29.73,29.59,4,1,4,1.43
2013-4-6,51,47,42,48,44,41,96,92,86,29.80,29.57,8,2,8,0.98
2013-4-7,44,41,38,42,40,36,96,94,93,29.74,29.32,4,1,4,1.74
2013-4-8,58,48,39,50,44,38,96,88,67,30.12,29.74,5,1,5,0.10
2013-4-9,58,49,40,48,43,38,95,83,60,30.19,30.03,6,1,6,0.00
2013-4-10,62,52,46,51,45,40,94,79,58,30.11,29.78,16,3,16,0.42
2013-4-11,57,47,40,46,41,38,91,81,59,30.14,30.03,8,2,8,0.07
2013-4-12,49,43,36,42,39,34,95,87,69,30.03,29.56,12,1,12,0.43
2013-4-13,48,41,37,42,37,34,93,86,77,29.85,29.62,13,3,13,0.27
2013-4-14,58,44,36,45,38,34,94,82,47,29.87,29.75,12,1,12,0.38
2013-4-15,61,44,35,44,38,33,94,82,47,30.02,29.79,11,1,11,0.09
2013-4-16,60,42,29,44,35,27,95,77,47,30.24,30.02,12,1,12,0.00
2013-4-17,66,46,30,45,35,27,94,69,36,30.30,30.23,12,1,12,0.00
2013-4-18,54,46,38,47,42,34,95,85,67,30.30,30.07,7,1,7,0.29
2013-4-19,55,50,47,52,48,45,96,93,88,30.07,29.91,7,1,7,1.17
2013-4-20,56,49,45,50,46,43,94,89,77,30.13,30.06,10,2,10,0.03
2013-4-21,54,46,36,48,42,34,92,86,73,30.20,30.07,10,1,10,0.02
2013-4-22,65,46,29,46,34,28,95,70,28,30.34,30.20,14,2,14,0.01
2013-4-23,67,47,28,43,33,26,95,64,28,30.26,30.06,12,2,12,0.00
2013-4-24,74,54,31,46,36,28,95,58,23,30.16,29.91,12,2,12,0.00
2013-4-25,79,54,33,48,39,30,95,63,27,30.00,29.88,8,1,8,0.00
2013-4-26,77,56,37,51,44,34,92,69,31,30.10,29.99,8,1,8,0.00
2013-4-27,53,50,46,50,46,42,91,86,68,30.08,30.02,8,1,8,0.12
2013-4-28,62,52,46,50,44,40,91,76,50,30.06,29.80,12,2,12,0.10
2013-4-29,58,46,41,48,42,34,94,83,62,30.01,29.76,11,2,11,0.46
2013-4-30,61,46,34,41,35,28,93,69,34,30.28,30.01,14,2,14,0.02
2013-5-1,70,47,28,42,33,25,95,65,24,30.41,30.28,9,2,9,0.01
2013-5-2,76,53,34,49,40,31,95,64,34,30.38,30.19,13,2,13,0.00
2013-5-3,75,56,36,51,43,33,94,66,38,30.23,30.07,9,2,12,0.00
2013-5-4,82,60,37,54,44,35,94,62,23,30.07,29.84,18,2,18,0.00
2013-5-5,86,63,40,55,45,37,95,61,24,29.84,29.61,13,2,13,0.00
2013-5-6,93,65,41,55,45,37,95,59,17,29.70,29.59,8,1,8,0.00
2013-5-7,80,60,44,57,50,40,93,73,41,29.87,29.68,6,1,6,0.00
2013-5-8,73,56,45,55,49,42,92,79,53,29.99,29.87,4,1,4,0.00
2013-5-9,77,57,40,57,49,38,93,77,49,30.06,29.96,5,1,5,0.00
2013-5-10,85,62,42,58,51,40,95,71,38,30.05,29.95,5,1,5,0.00
2013-5-11,87,67,50,61,54,47,94,67,33,30.04,29.83,3,1,3,0.00
2013-5-12,75,63,56,62,57,53,93,82,52,29.96,29.86,6,1,6,0.30
2013-5-13,68,56,42,59,52,40,95,87,70,30.04,29.77,9,2,9,0.41
2013-5-14,71,53,39,51,42,36,94,71,31,30.07,29.96,5,1,5,0.02
2013-5-15,69,54,39,50,45,36,95,75,47,29.97,29.86,5,1,5,0.06
2013-5-16,76,62,50,55,51,48,93,71,39,29.87,29.70,7,2,7,0.00
2013-5-17,64,56,51,54,50,48,92,81,58,29.92,29.81,5,1,5,0.11
2013-5-18,65,55,49,52,49,47,92,80,61,30.11,29.92,4,1,4,0.01
2013-5-19,70,57,46,54,49,43,92,77,54,30.23,30.11,4,1,4,0.00
2013-5-20,72,59,44,54,49,41,93,73,46,30.19,29.74,3,1,3,0.00
2013-5-21,61,52,45,52,46,42,92,79,61,29.73,29.62,6,2,6,0.32
2013-5-22,53,46,41,48,44,39,93,90,82,29.78,29.71,3,1,3,0.05
2013-5-23,62,50,43,50,46,41,94,86,55,29.86,29.77,3,1,3,0.01
2013-5-24,66,53,45,52,47,43,94,83,53,29.90,29.81,4,1,4,0.00
2013-5-25,68,54,46,52,47,43,94,79,48,29.89,29.81,3,0,3,0.00
2013-5-26,66,54,45,55,49,42,93,84,62,29.84,29.78,3,0,3,0.00
2013-5-27,62,55,48,57,52,46,94,91,85,29.82,29.55,2,0,2,0.00
2013-5-28,63,55,50,55,52,48,95,88,72,29.73,29.62,3,1,3,0.00
2013-5-29,59,54,49,54,50,47,95,87,69,29.81,29.53,6,1,6,0.00
2013-5-30,63,53,46,52,48,45,94,83,61,30.09,29.83,6,1,6,0.00
2013-5-31,72,56,44,54,47,41,93,75,43,30.18,30.08,4,1,4,0.00
2013-6-1,67,49,43,55,45,39,92,87,61,30.09,30.02,3,0,3,0.00
2013-6-11,70,59,49,57,48,44,83,69,48,29.96,29.84,5,2,5,0.01
2013-6-12,67,56,47,55,48,42,87,75,50,30.00,29.95,4,1,4,0.06
2013-6-13,51,50,50,46,46,46,86,86,86,29.99,29.99,0,0,0,0.00
2013-6-14,75,62,46,54,49,40,81,63,45,30.08,29.90,6,1,6,0.03
2013-6-15,84,62,40,61,49,35,84,65,33,29.90,29.75,10,1,10,0.00
2013-6-16,81,62,46,61,51,41,82,70,45,29.95,29.84,7,1,7,0.00
2013-6-17,83,64,47,60,50,41,78,63,37,29.95,29.73,8,1,8,0.01
2013-6-18,79,62,54,57,48,41,72,60,35,29.83,29.72,12,1,12,0.00
2013-6-19,71,58,49,53,44,35,65,59,47,29.87,29.77,8,1,8,0.00
2013-6-20,60,55,52,46,35,21,62,48,29,29.95,29.81,11,1,11,0.22
2013-6-21,75,60,49,57,30,7,56,35,15,30.00,29.95,7,1,7,0.02
2013-6-22,85,65,44,59,33,-7,56,33,1,29.96,29.69,8,1,8,0.00
2013-6-23,73,64,56,52,17,0,50,15,1,29.69,29.44,6,0,6,0.21
2013-6-24,73,61,53,47,9,-14,40,6,1,29.55,29.42,7,1,7,0.41
2013-6-25,81,62,53,59,12,-2,52,10,1,29.71,29.51,10,1,10,0.27
2013-6-26,78,63,55,58,12,-13,50,9,1,29.91,29.69,9,1,9,0.24
2013-6-27,76,64,57,28,7,1,18,1,1,30.04,29.88,5,0,5,0.11
2013-6-28,93,74,59,68,30,2,50,19,1,30.03,29.88,8,1,8,0.00
2013-6-29,95,74,60,68,32,-4,50,22,1,29.96,29.83,4,1,4,0.00
2013-6-30,97,76,54,70,32,-1,46,19,1,29.86,29.68,7,1,7,0.00
2013-7-1,96,77,59,71,35,-6,49,22,1,29.86,29.74,9,1,9,0.00
2013-7-2,88,70,55,64,28,0,50,20,1,29.94,29.86,11,1,11,0.00
2013-7-3,85,68,54,59,32,-30,52,27,1,29.98,29.87,9,2,9,0.00
2013-7-4,78,62,52,56,18,-3,51,17,1,29.97,29.87,8,1,8,0.00
2013-7-5,77,63,53,56,19,-2,49,18,1,29.88,29.79,4,1,4,0.00
2013-7-6,85,65,49,61,22,-22,49,18,1,29.82,29.70,6,1,6,0.00
2013-7-7,85,64,49,61,15,-5,46,12,1,29.80,29.73,6,1,6,0.00
2013-7-8,84,66,54,60,21,-2,47,16,1,29.93,29.80,9,1,9,0.00
2013-7-9,90,69,49,64,29,-8,46,22,1,29.94,29.82,9,1,9,0.00
2013-7-10,81,62,48,58,14,-6,46,12,1,29.91,29.78,6,1,6,0.00
2013-7-11,79,63,52,54,26,-4,49,26,1,29.91,29.83,7,2,7,0.00
2013-7-12,70,57,45,51,14,-9,50,17,1,29.94,29.84,6,1,7,0.00
2013-7-13,81,61,41,56,21,-11,49,21,1,30.03,29.93,8,1,9,0.00
2013-7-14,89,66,42,56,27,-11,48,23,1,29.97,29.81,8,2,8,0.00
2013-7-15,85,66,44,56,29,-30,49,25,1,29.89,29.72,11,2,11,0.00
2013-7-16,92,67,46,63,22,-19,46,15,1,29.74,29.62,6,1,6,0.01
2013-7-17,71,63,52,12,6,-3,7,1,1,30.04,29.74,8,1,8,0.05
2013-7-18,85,64,49,59,16,-6,42,12,1,30.06,29.95,8,1,8,0.00
2013-7-19,88,64,47,62,16,-7,43,12,1,30.01,29.86,6,1,6,0.00
2013-7-20,84,63,50,57,13,-4,42,9,1,29.93,29.79,6,1,6,0.00
2013-7-21,83,63,51,55,11,-4,40,7,1,29.82,29.74,5,1,5,0.00
2013-7-22,85,63,52,58,12,-16,41,8,1,29.90,29.78,5,1,5,0.02
2013-7-23,90,68,48,62,21,-6,41,14,1,29.90,29.79,10,1,10,0.00
2013-7-24,91,69,49,62,23,-6,41,16,1,29.89,29.81,10,1,10,0.00
2013-7-25,90,66,45,60,22,-9,42,16,1,29.93,29.86,10,1,10,0.00
2013-7-26,90,67,42,59,27,-30,45,22,1,29.99,29.90,9,2,9,0.00
2013-7-27,84,63,44,56,19,-30,44,17,1,30.01,29.83,7,1,7,0.00
2013-7-28,79,58,44,53,8,-9,41,8,1,29.88,29.79,6,1,6,0.00
2013-7-29,82,63,52,56,14,-3,42,11,1,29.85,29.79,6,1,6,0.00
2013-7-30,85,63,47,57,15,-7,40,11,1,29.98,29.85,6,1,6,0.00
2013-7-31,73,60,50,13,3,-4,1,1,1,29.96,29.83,4,0,4,0.02
2013-8-1,66,58,55,8,2,0,1,1,1,29.92,29.87,4,0,4,0.01
2013-8-2,63,59,56,5,3,0,1,1,1,29.97,29.91,4,0,4,0.10
2013-8-3,74,64,57,14,6,1,1,1,1,29.96,29.88,4,1,4,0.00
2013-8-4,88,67,54,60,16,-1,40,9,1,29.89,29.76,8,1,8,0.00
2013-8-5,91,69,51,62,20,-23,41,13,1,29.85,29.75,6,1,6,0.00
2013-8-6,91,67,48,62,19,-6,42,13,1,29.84,29.74,9,1,9,0.00
2013-8-7,90,66,47,60,18,-6,40,12,1,29.85,29.77,8,1,8,0.00
2013-8-8,70,56,49,11,0,-5,1,1,1,29.88,29.83,4,0,4,0.00
2013-8-15,71,67,64,11,9,6,1,1,1,29.83,29.78,2,0,2,0.29
2013-8-16,89,72,61,58,19,4,37,8,1,29.86,29.78,7,1,7,0.00
2013-8-17,83,68,56,42,11,0,25,3,1,29.91,29.85,8,1,8,0.00
2013-8-18,84,68,59,55,16,2,39,8,1,29.96,29.89,8,1,8,0.00
2013-8-19,86,67,56,56,14,0,38,7,1,29.94,29.87,8,1,8,0.00
2013-8-20,81,63,48,56,16,-19,44,12,1,29.99,29.89,10,2,10,0.00
2013-8-21,88,64,44,59,15,-9,39,10,1,29.92,29.75,10,1,10,0.00
2013-8-22,90,63,49,60,9,-5,38,5,1,29.78,29.63,8,0,8,0.00
2013-8-23,79,64,58,18,6,2,1,1,1,29.73,29.66,6,1,6,0.00
2013-8-24,78,64,54,47,7,-20,35,2,1,29.75,29.68,6,0,6,0.02
2013-8-25,76,61,51,16,4,-4,1,1,1,29.77,29.70,5,0,5,0.03
2013-8-26,82,64,55,20,6,0,1,1,1,29.79,29.68,8,1,8,0.05
2013-8-27,86,67,59,56,12,2,38,5,1,29.79,29.62,6,1,6,0.02
2013-8-28,85,68,60,22,10,3,1,1,1,29.73,29.66,7,1,7,0.39
2013-8-29,80,67,64,19,8,6,1,1,1,29.86,29.68,5,1,5,1.41
2013-8-30,84,68,54,55,11,-1,39,3,1,29.99,29.86,10,1,10,0.01
2013-8-31,88,65,48,61,14,-6,41,9,1,29.91,29.66,9,1,9,0.01
2013-9-1,88,67,53,61,16,-16,41,9,1,29.73,29.62,6,1,6,0.00
2013-9-2,88,67,54,62,18,-17,44,11,1,29.78,29.69,8,1,8,0.00
2013-9-3,81,65,56,19,7,0,1,1,1,29.85,29.77,5,1,5,0.12
2013-9-4,72,62,54,12,5,-2,1,1,1,29.88,29.82,8,1,8,0.01
2013-9-5,73,63,56,13,6,0,1,1,1,29.87,29.76,8,1,8,0.83
2013-9-6,76,64,60,16,7,4,1,1,1,29.95,29.78,4,1,4,1.04
2013-9-7,81,64,56,20,6,0,1,1,1,29.95,29.83,6,0,6,0.00
2013-9-8,84,66,52,36,8,-3,19,2,1,29.93,29.85,5,1,5,0.01
2013-9-9,84,64,52,22,7,-3,1,1,1,29.89,29.80,6,1,6,0.00
2013-9-10,87,66,52,24,8,-3,10,1,1,29.81,29.70,7,1,7,0.00
2013-9-11,58,56,54,2,0,-1,1,1,1,29.75,29.72,1,0,1,0.01
2013-9-13,67,65,63,9,7,6,1,1,1,29.77,29.71,2,0,2,0.01
2013-9-14,71,64,56,12,7,0,1,1,1,29.71,29.56,3,0,3,0.00
2013-9-15,70,63,56,11,5,0,1,1,1,29.66,29.54,4,0,4,0.30
2013-9-16,68,62,57,10,5,0,1,1,1,29.76,29.65,6,1,6,0.47
2013-9-17,63,57,54,6,1,-2,1,1,1,29.77,29.69,5,0,5,0.00
2013-9-18,76,59,48,49,4,-10,40,3,1,29.89,29.76,6,1,6,0.00
2013-9-19,88,59,41,59,10,-18,43,9,1,29.87,29.59,7,1,7,0.00
2013-9-20,81,58,44,53,7,-17,42,7,1,29.60,29.42,7,1,7,0.13
2013-9-21,76,62,56,50,9,-20,43,6,1,29.55,29.48,5,1,5,0.00
2013-9-22,66,57,53,8,1,-2,1,1,1,29.59,29.41,10,1,10,0.76
2013-9-23,60,55,50,4,0,-5,1,1,1,29.79,29.59,8,1,8,0.73
2013-9-24,65,52,46,7,-3,-8,1,1,1,29.79,29.66,7,0,7,0.14
2013-9-25,64,52,44,6,-3,-9,1,1,1,29.86,29.68,4,0,4,0.04
2013-9-26,68,49,38,9,-5,-14,1,1,1,29.96,29.85,8,1,8,0.01
2013-9-27,58,52,45,1,-3,-8,1,1,1,29.95,29.68,5,0,5,0.10
2013-9-28,62,55,50,4,0,-4,1,1,1,29.68,29.19,10,1,10,2.23
2013-9-29,55,52,50,0,-3,-5,1,1,1,29.41,29.00,17,2,17,0.86
2013-9-30,59,51,47,2,-4,-7,1,1,1,29.77,29.30,12,2,12,1.27
2013-10-1,60,50,46,3,-4,-7,1,1,1,29.95,29.75,7,1,7,0.59
2013-10-2,57,51,48,1,-4,-6,1,1,1,29.99,29.87,3,0,4,0.00
2013-10-3,58,51,44,1,-4,-9,1,1,1,30.27,29.99,2,0,2,0.00
2013-10-4,68,48,34,10,-6,-17,1,1,1,30.29,30.17,5,0,5,0.00
2013-10-5,75,51,37,48,1,-15,40,6,1,30.17,29.95,5,0,5,0.00
2013-10-6,44,42,40,-9,-11,-12,1,1,1,29.95,29.93,0,0,0,0.00
2013-10-10,64,54,47,7,-1,-7,1,1,1,29.88,29.78,5,0,5,0.00
2013-10-11,60,52,46,3,-3,-8,1,1,1,29.96,29.88,4,0,4,0.00
2013-10-12,61,50,42,4,-4,-11,1,1,1,30.04,29.89,6,0,6,0.00
2013-10-13,62,44,36,5,-9,-16,1,1,1,30.19,30.03,4,0,4,0.00
2013-10-14,67,44,31,8,-9,-19,1,1,1,30.24,30.17,6,0,6,0.00
2013-10-15,62,42,32,5,-11,-18,1,1,1,30.21,29.99,7,0,7,0.00
2013-10-16,44,42,42,-10,-10,-11,1,1,1,30.00,29.98,1,0,1,0.00
2013-11-11,68,54,40,9,-2,-12,1,1,1,29.98,29.81,10,2,10,0.00
2013-11-12,59,52,44,3,-3,-9,1,1,1,30.21,29.85,4,0,4,0.00
2013-11-13,66,49,42,8,-5,-11,1,1,1,30.26,30.13,7,1,7,0.00
2013-11-14,45,44,42,-8,-9,-10,1,1,1,30.13,30.05,1,0,1,0.00
2013-11-16,47,44,41,-7,-9,-12,1,1,1,29.60,29.39,9,2,9,0.00
2013-11-17,49,45,40,-5,-8,-12,1,1,1,29.74,29.60,10,1,10,0.00
2013-11-18,52,48,46,-3,-6,-8,1,1,1,29.73,29.39,8,1,8,0.00
2013-11-19,52,44,37,-3,-9,-14,1,1,1,29.87,29.39,10,2,10,0.00
2013-11-20,45,33,25,-8,-18,-24,1,1,1,30.32,29.88,12,1,12,0.00
2013-11-21,49,30,21,-6,-20,-27,1,1,1,30.47,30.31,6,0,6,0.00
2013-11-22,50,30,21,16,-19,-37,27,2,1,30.46,30.27,8,0,8,0.00
2013-11-23,58,32,23,2,-19,-26,1,1,1,30.27,30.01,6,0,6,0.00
2013-11-24,59,34,25,2,-17,-24,1,1,1,30.07,29.98,2,0,2,0.00
2013-11-25,63,37,27,6,-14,-22,1,1,1,30.13,30.07,2,0,2,0.00
2013-11-26,60,38,26,3,-14,-23,1,1,1,30.09,29.92,2,0,2,0.00
2013-11-27,59,41,30,3,-11,-20,1,1,1,29.92,29.78,4,0,4,0.00
2013-11-28,60,37,28,4,-15,-22,1,1,1,30.01,29.85,6,0,6,0.00
2013-11-29,47,40,29,-6,-12,-21,1,1,1,30.15,30.01,2,0,2,0.00
2013-11-30,49,45,40,-6,-8,-12,1,1,1,30.17,29.93,3,0,3,0.00
2013-12-1,53,49,45,-2,-5,-8,1,1,1,29.93,29.61,19,3,19,0.00
2013-12-2,45,41,37,-8,-12,-15,1,1,1,29.68,29.64,11,3,11,0.00
2013-12-16,53,43,37,-2,-10,-15,1,1,1,30.32,30.09,3,0,3,0.00
2013-12-17,107,47,38,39,-10,-28,1,1,1,30.09,29.94,0,0,0,0.00